sensor_id;sensor_type;location;lat;lon;timestamp;pressure;altitude;pressure_sealevel;temperature;humidity
71107;BME280;58763;47.982;11.516;2023-02-14T00:01:51;95859.09;;;0.05;75.02
71107;BME280;58763;47.982;11.516;2023-02-14T00:04:17;95861.38;;;0.08;74.64
71107;BME280;58763;47.982;11.516;2023-02-14T00:06:44;95861.00;;;-0.04;74.56
71107;BME280;58763;47.982;11.516;2023-02-14T00:09:11;95857.97;;;-0.01;74.47
71107;BME280;58763;47.982;11.516;2023-02-14T00:11:37;95857.44;;;0.04;74.20
71107;BME280;58763;47.982;11.516;2023-02-14T00:14:04;95853.56;;;-0.09;74.89
71107;BME280;58763;47.982;11.516;2023-02-14T00:16:48;95868.47;;;-0.22;75.09
71107;BME280;58763;47.982;11.516;2023-02-14T00:19:16;95869.34;;;-0.30;74.78
71107;BME280;58763;47.982;11.516;2023-02-14T00:21:42;95873.13;;;-0.24;74.60
71107;BME280;58763;47.982;11.516;2023-02-14T00:24:13;95872.41;;;-0.18;74.80
71107;BME280;58763;47.982;11.516;2023-02-14T00:26:40;95882.88;;;-0.17;75.34
71107;BME280;58763;47.982;11.516;2023-02-14T00:29:08;95877.31;;;-0.07;75.80
71107;BME280;58763;47.982;11.516;2023-02-14T00:31:34;95868.56;;;-0.16;76.04
71107;BME280;58763;47.982;11.516;2023-02-14T00:33:59;95864.44;;;-0.18;76.86
71107;BME280;58763;47.982;11.516;2023-02-14T00:36:25;95869.44;;;-0.23;77.30
71107;BME280;58763;47.982;11.516;2023-02-14T00:38:51;95871.13;;;-0.22;77.34
71107;BME280;58763;47.982;11.516;2023-02-14T00:41:17;95874.91;;;-0.17;77.47
71107;BME280;58763;47.982;11.516;2023-02-14T00:43:46;95862.16;;;-0.21;77.59
71107;BME280;58763;47.982;11.516;2023-02-14T00:46:13;95863.59;;;-0.19;77.73
71107;BME280;58763;47.982;11.516;2023-02-14T00:48:38;95870.13;;;-0.21;77.96
71107;BME280;58763;47.982;11.516;2023-02-14T00:51:04;95872.78;;;-0.21;78.08
71107;BME280;58763;47.982;11.516;2023-02-14T00:53:29;95873.47;;;-0.27;78.15
71107;BME280;58763;47.982;11.516;2023-02-14T00:55:55;95868.69;;;-0.32;78.12
71107;BME280;58763;47.982;11.516;2023-02-14T00:58:21;95859.66;;;-0.23;78.10
71107;BME280;58763;47.982;11.516;2023-02-14T01:00:46;95857.47;;;-0.19;77.55
71107;BME280;58763;47.982;11.516;2023-02-14T01:03:12;95859.94;;;-0.18;77.50
71107;BME280;58763;47.982;11.516;2023-02-14T01:05:37;95866.00;;;-0.24;77.23
71107;BME280;58763;47.982;11.516;2023-02-14T01:08:03;95878.03;;;-0.36;77.41
71107;BME280;58763;47.982;11.516;2023-02-14T01:10:29;95880.84;;;-0.37;77.71
71107;BME280;58763;47.982;11.516;2023-02-14T01:12:55;95880.28;;;-0.47;78.32
71107;BME280;58763;47.982;11.516;2023-02-14T01:15:20;95879.56;;;-0.41;78.12
71107;BME280;58763;47.982;11.516;2023-02-14T01:17:46;95880.22;;;-0.39;77.66
71107;BME280;58763;47.982;11.516;2023-02-14T01:20:12;95878.56;;;-0.40;77.71
71107;BME280;58763;47.982;11.516;2023-02-14T01:22:39;95872.88;;;-0.37;77.67
71107;BME280;58763;47.982;11.516;2023-02-14T01:25:05;95873.41;;;-0.42;77.92
71107;BME280;58763;47.982;11.516;2023-02-14T01:27:31;95871.19;;;-0.53;79.21
71107;BME280;58763;47.982;11.516;2023-02-14T01:29:56;95871.25;;;-0.38;78.88
71107;BME280;58763;47.982;11.516;2023-02-14T01:32:22;95876.03;;;-0.34;78.05
71107;BME280;58763;47.982;11.516;2023-02-14T01:34:48;95874.19;;;-0.33;78.00
71107;BME280;58763;47.982;11.516;2023-02-14T01:37:13;95877.56;;;-0.39;78.31
71107;BME280;58763;47.982;11.516;2023-02-14T01:39:39;95867.22;;;-0.34;78.52
71107;BME280;58763;47.982;11.516;2023-02-14T01:42:05;95871.25;;;-0.38;78.44
71107;BME280;58763;47.982;11.516;2023-02-14T01:47:01;95865.03;;;-0.53;78.30
71107;BME280;58763;47.982;11.516;2023-02-14T01:49:31;95862.75;;;-0.56;79.03
71107;BME280;58763;47.982;11.516;2023-02-14T01:52:05;95860.50;;;-0.45;78.37
71107;BME280;58763;47.982;11.516;2023-02-14T01:54:35;95864.97;;;-0.45;78.12
71107;BME280;58763;47.982;11.516;2023-02-14T01:57:06;95860.38;;;-0.51;78.54
71107;BME280;58763;47.982;11.516;2023-02-14T01:59:39;95864.38;;;-0.55;78.30
71107;BME280;58763;47.982;11.516;2023-02-14T02:02:06;95860.78;;;-0.62;78.25
71107;BME280;58763;47.982;11.516;2023-02-14T02:04:34;95861.41;;;-0.60;78.32
71107;BME280;58763;47.982;11.516;2023-02-14T02:07:04;95876.41;;;-0.68;78.92
71107;BME280;58763;47.982;11.516;2023-02-14T02:09:48;95884.38;;;-0.68;79.10
71107;BME280;58763;47.982;11.516;2023-02-14T02:12:15;95881.22;;;-0.94;80.14
71107;BME280;58763;47.982;11.516;2023-02-14T02:14:42;95879.38;;;-0.93;80.36
71107;BME280;58763;47.982;11.516;2023-02-14T02:20:09;95875.59;;;-0.99;81.35
71107;BME280;58763;47.982;11.516;2023-02-14T02:37:36;95866.25;;;-0.87;80.87
71107;BME280;58763;47.982;11.516;2023-02-14T02:40:28;95864.41;;;-0.86;81.11
71107;BME280;58763;47.982;11.516;2023-02-14T02:43:27;95863.22;;;-0.84;80.92
71107;BME280;58763;47.982;11.516;2023-02-14T02:46:02;95860.53;;;-0.76;80.26
71107;BME280;58763;47.982;11.516;2023-02-14T02:55:22;95842.59;;;-0.74;79.97
71107;BME280;58763;47.982;11.516;2023-02-14T02:57:50;95835.28;;;-0.72;80.15
71107;BME280;58763;47.982;11.516;2023-02-14T03:00:19;95836.75;;;-0.69;79.62
71107;BME280;58763;47.982;11.516;2023-02-14T03:02:51;95837.75;;;-0.70;79.33
71107;BME280;58763;47.982;11.516;2023-02-14T03:05:38;95834.66;;;-0.82;79.84
71107;BME280;58763;47.982;11.516;2023-02-14T03:08:04;95821.75;;;-0.85;79.94
71107;BME280;58763;47.982;11.516;2023-02-14T03:10:33;95830.31;;;-0.75;80.21
71107;BME280;58763;47.982;11.516;2023-02-14T03:18:52;95836.31;;;-0.81;79.74
71107;BME280;58763;47.982;11.516;2023-02-14T03:22:16;95835.63;;;-0.75;78.62
71107;BME280;58763;47.982;11.516;2023-02-14T03:31:03;95835.38;;;-0.88;78.56
71107;BME280;58763;47.982;11.516;2023-02-14T03:33:35;95841.94;;;-1.06;78.55
71107;BME280;58763;47.982;11.516;2023-02-14T03:39:16;95846.56;;;-1.00;79.43
71107;BME280;58763;47.982;11.516;2023-02-14T03:41:53;95842.06;;;-1.00;78.78
71107;BME280;58763;47.982;11.516;2023-02-14T03:44:24;95852.56;;;-1.06;79.26
71107;BME280;58763;47.982;11.516;2023-02-14T03:47:06;95858.50;;;-0.96;78.91
71107;BME280;58763;47.982;11.516;2023-02-14T03:49:35;95856.38;;;-1.01;78.97
71107;BME280;58763;47.982;11.516;2023-02-14T03:52:02;95854.38;;;-0.99;79.04
71107;BME280;58763;47.982;11.516;2023-02-14T03:54:31;95868.63;;;-1.00;79.01
71107;BME280;58763;47.982;11.516;2023-02-14T03:57:11;95864.81;;;-0.97;78.47
71107;BME280;58763;47.982;11.516;2023-02-14T03:59:38;95858.28;;;-0.87;78.00
71107;BME280;58763;47.982;11.516;2023-02-14T04:04:39;95868.75;;;-0.93;78.64
71107;BME280;58763;47.982;11.516;2023-02-14T04:07:09;95860.84;;;-1.01;78.34
71107;BME280;58763;47.982;11.516;2023-02-14T04:09:35;95861.56;;;-1.15;78.87
71107;BME280;58763;47.982;11.516;2023-02-14T04:12:01;95862.75;;;-1.18;78.79
71107;BME280;58763;47.982;11.516;2023-02-14T04:14:26;95860.09;;;-1.18;79.03
71107;BME280;58763;47.982;11.516;2023-02-14T04:16:54;95861.88;;;-1.10;78.50
71107;BME280;58763;47.982;11.516;2023-02-14T04:19:38;95863.31;;;-1.00;77.55
71107;BME280;58763;47.982;11.516;2023-02-14T04:22:03;95863.16;;;-0.98;77.01
71107;BME280;58763;47.982;11.516;2023-02-14T04:24:29;95859.81;;;-1.00;76.81
71107;BME280;58763;47.982;11.516;2023-02-14T04:26:55;95853.06;;;-1.03;76.22
71107;BME280;58763;47.982;11.516;2023-02-14T04:29:54;95839.13;;;-1.05;75.98
71107;BME280;58763;47.982;11.516;2023-02-14T04:32:21;95844.63;;;-1.14;76.47
71107;BME280;58763;47.982;11.516;2023-02-14T04:34:47;95840.22;;;-1.22;76.93
71107;BME280;58763;47.982;11.516;2023-02-14T04:37:14;95837.72;;;-1.23;76.58
71107;BME280;58763;47.982;11.516;2023-02-14T04:39:40;95845.53;;;-1.22;76.74
71107;BME280;58763;47.982;11.516;2023-02-14T04:42:06;95839.38;;;-1.22;76.00
71107;BME280;58763;47.982;11.516;2023-02-14T04:44:32;95841.84;;;-1.21;76.19
71107;BME280;58763;47.982;11.516;2023-02-14T04:47:03;95842.88;;;-1.22;76.11
71107;BME280;58763;47.982;11.516;2023-02-14T04:49:28;95832.72;;;-1.18;76.08
71107;BME280;58763;47.982;11.516;2023-02-14T04:51:54;95837.91;;;-1.25;75.83
71107;BME280;58763;47.982;11.516;2023-02-14T04:54:20;95834.03;;;-1.14;75.50
71107;BME280;58763;47.982;11.516;2023-02-14T04:56:45;95830.19;;;-1.12;75.14
71107;BME280;58763;47.982;11.516;2023-02-14T04:59:12;95823.13;;;-1.19;75.09
71107;BME280;58763;47.982;11.516;2023-02-14T05:01:39;95830.56;;;-1.15;74.94
71107;BME280;58763;47.982;11.516;2023-02-14T05:04:05;95825.59;;;-1.18;74.60
71107;BME280;58763;47.982;11.516;2023-02-14T05:06:30;95827.59;;;-1.20;74.11
71107;BME280;58763;47.982;11.516;2023-02-14T05:08:57;95817.00;;;-1.28;73.63
71107;BME280;58763;47.982;11.516;2023-02-14T05:11:23;95819.22;;;-1.40;73.77
71107;BME280;58763;47.982;11.516;2023-02-14T05:13:49;95823.41;;;-1.45;74.70
71107;BME280;58763;47.982;11.516;2023-02-14T05:16:14;95814.47;;;-1.52;75.08
71107;BME280;58763;47.982;11.516;2023-02-14T05:18:40;95819.78;;;-1.52;75.24
71107;BME280;58763;47.982;11.516;2023-02-14T05:21:06;95819.78;;;-1.52;75.92
71107;BME280;58763;47.982;11.516;2023-02-14T05:23:31;95816.75;;;-1.41;75.24
71107;BME280;58763;47.982;11.516;2023-02-14T05:25:57;95818.75;;;-1.43;75.48
71107;BME280;58763;47.982;11.516;2023-02-14T05:28:23;95819.41;;;-1.49;75.85
71107;BME280;58763;47.982;11.516;2023-02-14T05:30:49;95820.84;;;-1.30;74.46
71107;BME280;58763;47.982;11.516;2023-02-14T05:33:15;95818.69;;;-1.35;74.02
71107;BME280;58763;47.982;11.516;2023-02-14T05:35:41;95814.75;;;-1.39;73.49
71107;BME280;58763;47.982;11.516;2023-02-14T05:38:07;95827.44;;;-1.57;73.80
71107;BME280;58763;47.982;11.516;2023-02-14T05:40:33;95825.94;;;-1.68;74.19
71107;BME280;58763;47.982;11.516;2023-02-14T05:42:58;95831.63;;;-1.71;74.37
71107;BME280;58763;47.982;11.516;2023-02-14T05:45:24;95828.66;;;-1.76;74.75
71107;BME280;58763;47.982;11.516;2023-02-14T05:47:50;95837.78;;;-1.86;75.07
71107;BME280;58763;47.982;11.516;2023-02-14T05:50:16;95829.81;;;-1.78;75.13
71107;BME280;58763;47.982;11.516;2023-02-14T05:52:43;95839.75;;;-1.80;74.79
71107;BME280;58763;47.982;11.516;2023-02-14T05:55:08;95835.78;;;-1.84;74.96
71107;BME280;58763;47.982;11.516;2023-02-14T05:57:34;95828.31;;;-1.89;75.10
71107;BME280;58763;47.982;11.516;2023-02-14T06:00:00;95833.16;;;-1.92;75.09
71107;BME280;58763;47.982;11.516;2023-02-14T06:02:26;95827.50;;;-1.81;77.36
71107;BME280;58763;47.982;11.516;2023-02-14T06:04:51;95835.09;;;-1.78;78.15
71107;BME280;58763;47.982;11.516;2023-02-14T06:07:17;95830.13;;;-1.73;75.80
71107;BME280;58763;47.982;11.516;2023-02-14T06:09:43;95832.41;;;-1.70;74.47
71107;BME280;58763;47.982;11.516;2023-02-14T06:12:09;95834.78;;;-1.75;74.07
71107;BME280;58763;47.982;11.516;2023-02-14T06:14:34;95825.84;;;-1.82;73.86
71107;BME280;58763;47.982;11.516;2023-02-14T06:17:02;95828.84;;;-1.93;73.86
71107;BME280;58763;47.982;11.516;2023-02-14T06:19:28;95824.38;;;-1.93;73.17
71107;BME280;58763;47.982;11.516;2023-02-14T06:21:53;95845.94;;;-2.04;73.51
71107;BME280;58763;47.982;11.516;2023-02-14T06:24:19;95838.81;;;-2.12;73.59
71107;BME280;58763;47.982;11.516;2023-02-14T06:26:44;95835.50;;;-2.14;73.76
71107;BME280;58763;47.982;11.516;2023-02-14T06:29:10;95843.63;;;-2.23;74.23
71107;BME280;58763;47.982;11.516;2023-02-14T06:31:35;95840.66;;;-2.20;74.41
71107;BME280;58763;47.982;11.516;2023-02-14T06:34:01;95843.47;;;-2.14;73.88
71107;BME280;58763;47.982;11.516;2023-02-14T06:36:26;95839.31;;;-2.08;73.57
71107;BME280;58763;47.982;11.516;2023-02-14T06:38:52;95840.63;;;-2.04;73.59
71107;BME280;58763;47.982;11.516;2023-02-14T06:41:17;95841.09;;;-2.00;73.71
71107;BME280;58763;47.982;11.516;2023-02-14T06:43:44;95845.09;;;-1.96;73.09
71107;BME280;58763;47.982;11.516;2023-02-14T06:46:10;95844.13;;;-2.12;73.47
71107;BME280;58763;47.982;11.516;2023-02-14T06:48:36;95845.44;;;-2.16;73.93
71107;BME280;58763;47.982;11.516;2023-02-14T06:51:02;95848.25;;;-2.09;73.74
71107;BME280;58763;47.982;11.516;2023-02-14T06:53:28;95856.72;;;-2.14;74.25
71107;BME280;58763;47.982;11.516;2023-02-14T06:55:53;95851.41;;;-2.22;74.53
71107;BME280;58763;47.982;11.516;2023-02-14T06:58:19;95864.47;;;-2.12;74.72
71107;BME280;58763;47.982;11.516;2023-02-14T07:00:45;95862.69;;;-2.20;75.02
71107;BME280;58763;47.982;11.516;2023-02-14T07:03:11;95858.03;;;-2.18;75.47
71107;BME280;58763;47.982;11.516;2023-02-14T07:05:36;95858.03;;;-2.18;75.78
71107;BME280;58763;47.982;11.516;2023-02-14T07:08:03;95864.00;;;-2.16;75.81
71107;BME280;58763;47.982;11.516;2023-02-14T07:10:32;95859.19;;;-2.12;76.18
71107;BME280;58763;47.982;11.516;2023-02-14T07:12:59;95855.03;;;-2.06;76.05
71107;BME280;58763;47.982;11.516;2023-02-14T07:15:24;95847.41;;;-2.01;75.78
71107;BME280;58763;47.982;11.516;2023-02-14T07:17:50;95844.75;;;-1.93;76.48
71107;BME280;58763;47.982;11.516;2023-02-14T07:20:16;95842.09;;;-1.93;76.44
71107;BME280;58763;47.982;11.516;2023-02-14T07:22:42;95839.44;;;-1.93;76.86
71107;BME280;58763;47.982;11.516;2023-02-14T07:25:09;95838.09;;;-1.81;76.82
71107;BME280;58763;47.982;11.516;2023-02-14T07:27:34;95839.09;;;-1.82;77.16
71107;BME280;58763;47.982;11.516;2023-02-14T07:30:00;95835.78;;;-1.84;77.57
71107;BME280;58763;47.982;11.516;2023-02-14T07:32:26;95834.09;;;-1.69;78.17
71107;BME280;58763;47.982;11.516;2023-02-14T07:34:51;95831.94;;;-1.66;78.22
71107;BME280;58763;47.982;11.516;2023-02-14T07:37:18;95831.38;;;-1.45;78.40
71107;BME280;58763;47.982;11.516;2023-02-14T07:39:44;95829.97;;;-1.33;78.05
71107;BME280;58763;47.982;11.516;2023-02-14T07:42:10;95833.88;;;-1.21;77.85
71107;BME280;58763;47.982;11.516;2023-02-14T07:44:36;95829.94;;;-1.25;78.00
71107;BME280;58763;47.982;11.516;2023-02-14T07:47:08;95826.97;;;-0.99;77.28
71107;BME280;58763;47.982;11.516;2023-02-14T07:49:34;95820.44;;;-0.89;77.04
71107;BME280;58763;47.982;11.516;2023-02-14T07:52:01;95827.59;;;-0.89;77.37
71107;BME280;58763;47.982;11.516;2023-02-14T07:54:27;95821.34;;;-0.96;77.66
71107;BME280;58763;47.982;11.516;2023-02-14T07:56:53;95818.16;;;-0.92;77.89
71107;BME280;58763;47.982;11.516;2023-02-14T07:59:18;95811.44;;;-0.80;77.29
71107;BME280;58763;47.982;11.516;2023-02-14T08:01:44;95809.84;;;-0.66;77.21
71107;BME280;58763;47.982;11.516;2023-02-14T08:04:09;95807.53;;;-0.46;77.06
71107;BME280;58763;47.982;11.516;2023-02-14T08:06:39;95802.09;;;-0.53;77.65
71107;BME280;58763;47.982;11.516;2023-02-14T08:09:04;95801.25;;;-0.31;76.95
71107;BME280;58763;47.982;11.516;2023-02-14T08:11:30;95805.00;;;-0.25;77.23
71107;BME280;58763;47.982;11.516;2023-02-14T08:14:14;95806.03;;;-0.12;76.98
71107;BME280;58763;47.982;11.516;2023-02-14T08:16:40;95799.66;;;-0.03;76.80
71107;BME280;58763;47.982;11.516;2023-02-14T08:19:05;95803.69;;;-0.07;77.00
71107;BME280;58763;47.982;11.516;2023-02-14T08:21:31;95798.66;;;-0.02;77.52
71107;BME280;58763;47.982;11.516;2023-02-14T08:23:57;95792.78;;;0.03;78.18
71107;BME280;58763;47.982;11.516;2023-02-14T08:26:23;95801.53;;;0.12;78.79
71107;BME280;58763;47.982;11.516;2023-02-14T08:28:48;95798.97;;;0.18;79.27
71107;BME280;58763;47.982;11.516;2023-02-14T08:31:22;95802.00;;;0.30;79.39
71107;BME280;58763;47.982;11.516;2023-02-14T08:33:48;95796.13;;;0.34;79.13
71107;BME280;58763;47.982;11.516;2023-02-14T08:36:13;95786.91;;;0.51;78.69
71107;BME280;58763;47.982;11.516;2023-02-14T08:38:42;95792.16;;;0.59;79.17
71107;BME280;58763;47.982;11.516;2023-02-14T08:41:10;95786.00;;;0.59;80.53
71107;BME280;58763;47.982;11.516;2023-02-14T08:43:36;95789.63;;;0.87;81.20
71107;BME280;58763;47.982;11.516;2023-02-14T08:46:02;95786.38;;;1.06;80.33
71107;BME280;58763;47.982;11.516;2023-02-14T08:48:27;95787.03;;;1.29;79.83
71107;BME280;58763;47.982;11.516;2023-02-14T08:50:53;95790.78;;;1.35;79.21
71107;BME280;58763;47.982;11.516;2023-02-14T08:53:18;95792.63;;;1.56;79.84
71107;BME280;58763;47.982;11.516;2023-02-14T08:55:44;95799.31;;;1.73;80.19
71107;BME280;58763;47.982;11.516;2023-02-14T08:58:10;95802.19;;;1.92;79.83
71107;BME280;58763;47.982;11.516;2023-02-14T09:00:35;95801.13;;;2.15;79.18
71107;BME280;58763;47.982;11.516;2023-02-14T09:03:01;95798.22;;;2.44;79.36
71107;BME280;58763;47.982;11.516;2023-02-14T09:05:26;95804.16;;;2.39;77.80
71107;BME280;58763;47.982;11.516;2023-02-14T09:07:53;95798.72;;;2.54;77.85
71107;BME280;58763;47.982;11.516;2023-02-14T09:10:20;95795.94;;;2.75;77.45
71107;BME280;58763;47.982;11.516;2023-02-14T09:12:46;95802.16;;;2.82;77.14
71107;BME280;58763;47.982;11.516;2023-02-14T09:15:12;95799.75;;;3.00;76.36
71107;BME280;58763;47.982;11.516;2023-02-14T09:17:38;95805.75;;;3.15;76.00
71107;BME280;58763;47.982;11.516;2023-02-14T09:20:06;95802.13;;;3.29;76.81
71107;BME280;58763;47.982;11.516;2023-02-14T09:22:34;95801.41;;;3.68;75.36
71107;BME280;58763;47.982;11.516;2023-02-14T09:25:00;95802.84;;;3.97;74.63
71107;BME280;58763;47.982;11.516;2023-02-14T09:27:26;95805.31;;;4.11;72.42
71107;BME280;58763;47.982;11.516;2023-02-14T09:29:51;95811.69;;;4.30;72.86
71107;BME280;58763;47.982;11.516;2023-02-14T09:32:17;95803.22;;;4.46;72.84
71107;BME280;58763;47.982;11.516;2023-02-14T09:34:43;95799.50;;;4.60;71.01
71107;BME280;58763;47.982;11.516;2023-02-14T09:37:27;95804.00;;;4.79;70.44
71107;BME280;58763;47.982;11.516;2023-02-14T09:40:12;95786.19;;;5.05;69.89
71107;BME280;58763;47.982;11.516;2023-02-14T09:42:52;95790.72;;;5.04;69.56
71107;BME280;58763;47.982;11.516;2023-02-14T09:45:24;95788.97;;;5.23;69.19
71107;BME280;58763;47.982;11.516;2023-02-14T09:50:25;95792.41;;;5.43;68.02
71107;BME280;58763;47.982;11.516;2023-02-14T09:52:56;95795.69;;;5.45;68.42
71107;BME280;58763;47.982;11.516;2023-02-14T09:55:25;95797.88;;;5.61;67.99
71107;BME280;58763;47.982;11.516;2023-02-14T09:58:24;95792.09;;;5.64;67.54
71107;BME280;58763;47.982;11.516;2023-02-14T10:00:55;95790.31;;;5.83;67.60
71107;BME280;58763;47.982;11.516;2023-02-14T10:03:36;95800.31;;;6.00;67.84
71107;BME280;58763;47.982;11.516;2023-02-14T10:12:39;95788.94;;;6.30;65.61
71107;BME280;58763;47.982;11.516;2023-02-14T10:15:14;95793.25;;;6.31;66.02
71107;BME280;58763;47.982;11.516;2023-02-14T10:17:56;95783.97;;;6.51;65.85
71107;BME280;58763;47.982;11.516;2023-02-14T10:20:27;95777.22;;;6.67;65.90
71107;BME280;58763;47.982;11.516;2023-02-14T10:23:08;95768.84;;;6.75;65.63
71107;BME280;58763;47.982;11.516;2023-02-14T10:25:47;95763.63;;;6.80;65.84
71107;BME280;58763;47.982;11.516;2023-02-14T10:28:24;95758.88;;;7.00;66.00
71107;BME280;58763;47.982;11.516;2023-02-14T10:31:06;95761.38;;;7.13;65.31
71107;BME280;58763;47.982;11.516;2023-02-14T10:33:40;95763.69;;;7.28;65.42
71107;BME280;58763;47.982;11.516;2023-02-14T10:38:54;95759.84;;;7.53;64.58
71107;BME280;58763;47.982;11.516;2023-02-14T10:44:21;95754.50;;;7.65;60.65
71107;BME280;58763;47.982;11.516;2023-02-14T10:47:00;95752.88;;;7.76;61.29
71107;BME280;58763;47.982;11.516;2023-02-14T10:52:47;95746.53;;;8.23;60.30
71107;BME280;58763;47.982;11.516;2023-02-14T10:55:48;95746.22;;;8.43;61.59
71107;BME280;58763;47.982;11.516;2023-02-14T10:58:18;95752.31;;;8.50;61.24
71107;BME280;58763;47.982;11.516;2023-02-14T11:00:59;95739.41;;;8.28;61.75
71107;BME280;58763;47.982;11.516;2023-02-14T11:03:27;95735.09;;;8.39;61.40
71107;BME280;58763;47.982;11.516;2023-02-14T11:05:54;95740.25;;;8.52;61.72
71107;BME280;58763;47.982;11.516;2023-02-14T11:08:31;95732.63;;;8.61;60.37
71107;BME280;58763;47.982;11.516;2023-02-14T11:11:03;95731.41;;;8.80;60.10
71107;BME280;58763;47.982;11.516;2023-02-14T11:13:37;95728.63;;;8.86;60.11
71107;BME280;58763;47.982;11.516;2023-02-14T11:16:05;95728.69;;;8.91;58.37
71107;BME280;58763;47.982;11.516;2023-02-14T11:18:33;95717.66;;;9.04;58.36
71107;BME280;58763;47.982;11.516;2023-02-14T11:21:10;95719.66;;;9.09;57.38
71107;BME280;58763;47.982;11.516;2023-02-14T11:23:47;95718.06;;;9.25;57.82
71107;BME280;58763;47.982;11.516;2023-02-14T11:26:19;95713.75;;;9.52;57.41
71107;BME280;58763;47.982;11.516;2023-02-14T11:31:33;95702.31;;;9.78;57.30
71107;BME280;58763;47.982;11.516;2023-02-14T11:34:00;95697.78;;;9.95;56.43
71107;BME280;58763;47.982;11.516;2023-02-14T11:36:28;95691.97;;;9.87;53.49
71107;BME280;58763;47.982;11.516;2023-02-14T11:41:48;95676.63;;;10.09;55.53
71107;BME280;58763;47.982;11.516;2023-02-14T11:44:17;95675.44;;;10.33;54.39
71107;BME280;58763;47.982;11.516;2023-02-14T11:46:48;95667.91;;;10.18;53.50
71107;BME280;58763;47.982;11.516;2023-02-14T11:51:52;95662.75;;;10.17;53.19
71107;BME280;58763;47.982;11.516;2023-02-14T11:54:32;95666.50;;;10.32;54.26
71107;BME280;58763;47.982;11.516;2023-02-14T11:57:03;95669.00;;;10.17;53.33
71107;BME280;58763;47.982;11.516;2023-02-14T11:59:37;95662.78;;;10.38;53.36
71107;BME280;58763;47.982;11.516;2023-02-14T12:02:34;95654.44;;;10.78;53.03
71107;BME280;58763;47.982;11.516;2023-02-14T12:05:16;95656.53;;;10.93;52.41
71107;BME280;58763;47.982;11.516;2023-02-14T12:07:45;95667.81;;;10.85;54.37
71107;BME280;58763;47.982;11.516;2023-02-14T12:17:59;95656.03;;;11.18;55.15
71107;BME280;58763;47.982;11.516;2023-02-14T12:20:37;95651.47;;;11.23;55.04
71107;BME280;58763;47.982;11.516;2023-02-14T12:23:17;95657.00;;;11.33;54.39
71107;BME280;58763;47.982;11.516;2023-02-14T12:25:51;95649.44;;;11.35;53.85
71107;BME280;58763;47.982;11.516;2023-02-14T12:28:27;95642.44;;;11.39;54.05
71107;BME280;58763;47.982;11.516;2023-02-14T12:30:55;95646.44;;;11.32;53.04
71107;BME280;58763;47.982;11.516;2023-02-14T12:33:21;95638.34;;;11.37;53.29
71107;BME280;58763;47.982;11.516;2023-02-14T12:36:02;95638.66;;;11.40;53.61
71107;BME280;58763;47.982;11.516;2023-02-14T12:38:45;95637.13;;;11.49;53.92
71107;BME280;58763;47.982;11.516;2023-02-14T12:43:56;95630.06;;;11.48;53.43
71107;BME280;58763;47.982;11.516;2023-02-14T12:49:17;95631.94;;;11.21;53.88
71107;BME280;58763;47.982;11.516;2023-02-14T12:51:56;95631.25;;;11.31;53.89
71107;BME280;58763;47.982;11.516;2023-02-14T12:54:34;95627.78;;;11.35;54.03
71107;BME280;58763;47.982;11.516;2023-02-14T13:02:59;95612.75;;;11.49;53.47
71107;BME280;58763;47.982;11.516;2023-02-14T13:05:48;95610.69;;;11.35;53.07
71107;BME280;58763;47.982;11.516;2023-02-14T13:08:38;95608.81;;;11.35;52.90
71107;BME280;58763;47.982;11.516;2023-02-14T13:14:14;95610.38;;;11.58;52.69
71107;BME280;58763;47.982;11.516;2023-02-14T13:16:51;95604.94;;;11.79;52.69
71107;BME280;58763;47.982;11.516;2023-02-14T13:22:26;95599.50;;;11.79;52.38
71107;BME280;58763;47.982;11.516;2023-02-14T13:24:58;95595.75;;;11.86;51.66
71107;BME280;58763;47.982;11.516;2023-02-14T13:27:28;95588.72;;;11.85;51.77
71107;BME280;58763;47.982;11.516;2023-02-14T13:30:07;95585.50;;;11.88;50.38
71107;BME280;58763;47.982;11.516;2023-02-14T13:32:39;95585.69;;;11.76;51.45
71107;BME280;58763;47.982;11.516;2023-02-14T13:35:07;95590.34;;;11.86;51.01
71107;BME280;58763;47.982;11.516;2023-02-14T13:37:34;95590.31;;;11.81;51.39
71107;BME280;58763;47.982;11.516;2023-02-14T13:40:03;95582.84;;;11.98;51.13
71107;BME280;58763;47.982;11.516;2023-02-14T13:48:26;95572.47;;;12.26;49.96
71107;BME280;58763;47.982;11.516;2023-02-14T13:51:01;95571.09;;;12.24;49.43
71107;BME280;58763;47.982;11.516;2023-02-14T13:53:37;95564.06;;;12.28;50.27
71107;BME280;58763;47.982;11.516;2023-02-14T14:01:39;95572.03;;;12.03;50.33
71107;BME280;58763;47.982;11.516;2023-02-14T14:17:43;95556.69;;;11.82;49.47
71107;BME280;58763;47.982;11.516;2023-02-14T14:22:53;95559.41;;;11.82;49.60
71107;BME280;58763;47.982;11.516;2023-02-14T14:25:52;95553.50;;;11.58;50.28
71107;BME280;58763;47.982;11.516;2023-02-14T14:28:20;95555.13;;;11.59;50.53
71107;BME280;58763;47.982;11.516;2023-02-14T14:30:47;95551.59;;;11.58;50.84
71107;BME280;58763;47.982;11.516;2023-02-14T14:35:38;95552.16;;;11.60;50.92
71107;BME280;58763;47.982;11.516;2023-02-14T14:38:04;95554.03;;;11.60;50.96
71107;BME280;58763;47.982;11.516;2023-02-14T14:40:32;95544.66;;;11.67;50.63
71107;BME280;58763;47.982;11.516;2023-02-14T14:43:10;95546.34;;;11.73;50.47
71107;BME280;58763;47.982;11.516;2023-02-14T14:45:36;95544.56;;;11.89;49.74
71107;BME280;58763;47.982;11.516;2023-02-14T14:48:09;95550.81;;;11.90;50.51
71107;BME280;58763;47.982;11.516;2023-02-14T14:50:36;95533.44;;;11.91;49.98
71107;BME280;58763;47.982;11.516;2023-02-14T14:53:06;95541.94;;;11.99;49.44
71107;BME280;58763;47.982;11.516;2023-02-14T14:55:37;95547.31;;;11.94;49.64
71107;BME280;58763;47.982;11.516;2023-02-14T14:58:10;95541.25;;;11.82;49.71
71107;BME280;58763;47.982;11.516;2023-02-14T15:00:51;95537.38;;;11.68;50.49
71107;BME280;58763;47.982;11.516;2023-02-14T15:03:20;95533.31;;;11.70;50.32
71107;BME280;58763;47.982;11.516;2023-02-14T15:05:48;95536.28;;;11.69;50.15
71107;BME280;58763;47.982;11.516;2023-02-14T15:10:54;95532.44;;;11.33;51.00
71107;BME280;58763;47.982;11.516;2023-02-14T15:13:32;95530.22;;;11.30;51.03
71107;BME280;58763;47.982;11.516;2023-02-14T15:16:17;95534.47;;;11.21;52.08